Terminal Aerodrome Forecast
Issued by NWS

Home | Current Version | Previous Version | Text Only | Print | Product List | Glossary On
Versions: 1 2 3 4 5 6 7 8 9 10 11 12 13 14 15 16 17 18 19 20 21 22 23 24 25
000
FTUS46 KLOX 160300 AAA
TAFSBP
TAF AMD
KSBP 160354Z 1604/1624 31012G18KT P6SM SKC
     FM160600 31008KT P6SM SKC
     FM161200 VRB03KT 3SM BR OVC005
     FM161600 VRB03KT P6SM SKC
     FM161900 30013KT P6SM SKC=

USA.gov is the U.S. government's official web portal to all federal, state and local government web resources and services.